Scottish Airport Reports

Civil airfields updated at H+20 and H+50
RAF airfields updated at H+50 only

EGPD - Aberdeen
Distance from station: NNE 19mi, 31km
Updated: 19/10/2019 14:20
Partly cloudy
Partly cloudy
 Wind from N
Wind: N 12 mph , 19 km/h
Temperature: 11°C
Dew Point: 5°C
Humidity: 67%
Barometer: 1001 hPa
Clouds: Partly cloudy
Visibility: 6 miles , 10 km
Cloud details: Partly cloudy 2500 ft
2019/10/19 13:20 EGPD 191320Z AUTO 36010KT 9999 SCT025 11/05 Q1001
EGPN - Dundee
Distance from station: SW 41mi, 66km
Updated: 19/10/2019 14:20
Partly cloudy
Partly cloudy
 Wind from N
Wind: N 6 mph , 9 km/h
Temperature: 12°C
Dew Point: 6°C
Humidity: 67%
Barometer: 1001 hPa
Clouds: Partly cloudy
Visibility: 6 miles , 10 km
Cloud details: Few Clouds 2000 ft
Partly cloudy 3800 ft
2019/10/19 13:20 EGPN 191320Z 36005KT 320V130 9999 FEW020 SCT038 12/06 Q1001
 
EGQS - RAF Lossiemouth
Distance from station: NNW 63mi, 102km
Updated: 19/10/2019 13:50
Partly cloudy
Partly cloudy
 Wind from N
Wind: N 12 mph , 19 km/h
Temperature: 11°C
Dew Point: 8°C
Humidity: 82%
Barometer: 1003 hPa
Clouds: Partly cloudy
Visibility: 6 miles , 10 km
Cloud details: Few Clouds 1600 ft
Partly cloudy 25000 ft
2019/10/19 12:50 EGQS 191250Z 01010KT 9999 FEW016 SCT250 11/08 Q1003 RMK BLU
EGPE - Inverness
Distance from station: WNW 73mi, 117km
Updated: 19/10/2019 14:20
Nearby showers, Partly cloudy
Nearby showers, Partly cloudy
 Wind from NNE
Wind: NNE 7 mph , 11 km/h
Temperature: 10°C
Wind Chill: 8°C
Dew Point: 9°C
Humidity: 94%
Barometer: 1004 hPa
Summary: Nearby Showers
Clouds: Partly cloudy
Visibility: 6 miles , 10 km
Cloud details: Few Clouds 1000 ft
Partly cloudy 2500 ft
2019/10/19 13:20 EGPE 191320Z 02006KT 330V040 9999 VCSH FEW010 SCT025 10/09 Q1004
 
EGPH - Edinburgh
Distance from station: SSW 77mi, 125km
Updated: 19/10/2019 14:20
Partly cloudy
Partly cloudy
 Wind from N
Wind: N 5 mph , 7 km/h
Temperature: 11°C
Dew Point: 7°C
Humidity: 77%
Barometer: 1001 hPa
Clouds: Partly cloudy
Visibility: 6 miles , 10 km
Cloud details: Partly cloudy 2800 ft
2019/10/19 13:20 EGPH 191320Z 36004KT 330V030 9999 SCT028 11/07 Q1001
EGPC - Wick
Distance from station: NNW 107mi, 172km
Updated: 19/10/2019 14:20
Mostly cloudy
Mostly cloudy
 Wind from NNE
Wind: NNE 17 mph , 28 km/h
Temperature: 11°C
Dew Point: 8°C
Humidity: 82%
Barometer: 1003 hPa
Clouds: Mostly cloudy
Visibility: 6 miles , 10 km
Cloud details: Few Clouds 1800 ft
Mostly cloudy 4100 ft
2019/10/19 13:20 EGPC 191320Z AUTO 03015KT 9999 FEW018/// BKN041/// 11/08 Q1003
 
EGPF - Glasgow
Distance from station: SW 107mi, 172km
Updated: 19/10/2019 14:20
Partly cloudy
Partly cloudy
 Wind from N
Wind: N 8 mph , 13 km/h
Temperature: 13°C
Dew Point: 6°C
Humidity: 63%
Barometer: 1002 hPa
Clouds: Partly cloudy
Visibility: 6 miles , 10 km
Cloud details: Partly cloudy 3600 ft
Partly cloudy 4600 ft
2019/10/19 13:20 EGPF 191320Z AUTO 01007KT 330V070 9999 SCT036 SCT046 13/06 Q1002
EGPK - Prestwick
Distance from station: SW 130mi, 209km
Updated: 19/10/2019 14:20
Partly cloudy
Partly cloudy
 Wind from N
Wind: N 5 mph , 7 km/h
Temperature: 12°C
Dew Point: 6°C
Humidity: 67%
Barometer: 1002 hPa
Clouds: Partly cloudy
Visibility: 6 miles , 10 km
Cloud details: Partly cloudy 2700 ft
2019/10/19 13:20 EGPK 191320Z 35004KT 9999 SCT027 12/06 Q1002
 
EGPA - Kirkwall, Orkney
Distance from station: N 140mi, 225km
Updated: 19/10/2019 14:20
Few Clouds
Few Clouds
 Wind from NNE
Wind: NNE 15 mph , 24 km/h
Temperature: 11°C
Dew Point: 8°C
Humidity: 82%
Barometer: 1004 hPa
Clouds: Few Clouds
Visibility: 6 miles , 10 km
Cloud details: Few Clouds 800 ft
2019/10/19 13:20 EGPA 191320Z 03013KT 9999 FEW008 11/08 Q1004
EGPO - Stornoway, Outer Hebrides
Distance from station: WNW 169mi, 273km
Updated: 19/10/2019 14:20
Nearby showers, Partly cloudy
Nearby showers, Partly cloudy
 Wind from NNE
Wind: NNE 29 mph , 46 km/h, Gust: 40 mph , 65 km/h
Temperature: 10°C
Wind Chill: 6°C
Dew Point: 7°C
Humidity: 82%
Barometer: 1007 hPa
Summary: Nearby Showers
Clouds: Partly cloudy
Visibility: 6 miles , 10 km
Cloud details: Few Clouds 900 ft
Partly cloudy 2000 ft
2019/10/19 13:20 EGPO 191320Z 02025G35KT 9999 VCSH FEW009 SCT020 10/07 Q1007
 
EGPI - Islay, Inner Hebrides
Distance from station: WSW 172mi, 276km
Updated: 19/10/2019 14:20
Clear
Clear
 Wind from N
Wind: N 17 mph , 28 km/h
Temperature: 12°C
Dew Point: 5°C
Humidity: 63%
Barometer: 1003 hPa
Summary: Clear
Visibility: greater than 7 miles , 10 km
2019/10/19 13:20 EGPI 191320Z 01015KT CAVOK 12/05 Q1003
EGPU - Tiree, Inner Hebrides
Distance from station: W 172mi, 276km
Updated: 19/10/2019 13:50
Few Clouds
Few Clouds
 Wind from N
Wind: N 23 mph , 37 km/h
Temperature: 12°C
Dew Point: 8°C
Humidity: 77%
Barometer: 1004 hPa
Clouds: Few Clouds
Visibility: 6 miles , 10 km
Cloud details: Few Clouds 1800 ft
2019/10/19 12:50 EGPU 191250Z 36020KT 9999 FEW018 12/08 Q1004
 
EGPB - Sumburgh, Shetland
Distance from station: NNE 208mi, 332km
Updated: 19/10/2019 14:20
Light rain, Showers, Mostly cloudy
Light rain, Showers, Mostly cloudy
 Wind from NE
Wind: NE 28 mph , 44 km/h, Gust: 40 mph , 65 km/h
Temperature: 10°C
Wind Chill: 6°C
Dew Point: 7°C
Humidity: 82%
Barometer: 1004 hPa
Summary: Light rain, Showers
Clouds: Mostly cloudy
Visibility: 6 miles , 10 km
Cloud details: Few Clouds 1200 ft
Partly cloudy 1700 ft
Mostly cloudy 2800 ft
2019/10/19 13:20 EGPB 191320Z 04024G35KT 9999 -SHRA FEW012 SCT017 BKN028 10/07 Q1004
EGPM - Scatsa, Shetland
Distance from station: NNE 245mi, 392km
Updated: 19/10/2019 14:20
Mostly cloudy
Mostly cloudy
 Wind from NE
Wind: NE 29 mph , 46 km/h, Gust: 41 mph , 67 km/h
Temperature: 9°C
Wind Chill: 4°C
Dew Point: 7°C
Humidity: 87%
Barometer: 1005 hPa
Clouds: Mostly cloudy
Visibility: 6 miles , 10 km
Cloud details: Few Clouds 1000 ft
Partly cloudy 1600 ft
Mostly cloudy 3100 ft
2019/10/19 13:20 EGPM 191320Z AUTO 04025G36KT 9999 FEW010/// SCT016/// BKN031/// 09/07 Q1005
-->